createdAt,value
2022-11-25T00:04:37.296Z,100678.78
2022-11-25T00:09:39.128Z,100671.25
2022-11-25T00:14:41.972Z,100673.31
2022-11-25T00:19:43.554Z,100670.03
2022-11-25T00:24:45.211Z,100689.06
2022-11-25T00:29:46.898Z,100681.00
2022-11-25T00:34:48.626Z,100675.69
2022-11-25T00:39:50.434Z,100677.75
2022-11-25T00:44:52.622Z,100668.50
2022-11-25T00:49:54.980Z,100676.03
2022-11-25T00:54:56.679Z,100673.47
2022-11-25T00:59:58.357Z,100678.78
2022-11-25T01:05:00.126Z,100682.53
2022-11-25T01:10:01.727Z,100677.03
2022-11-25T01:15:03.647Z,100675.34
2022-11-25T01:20:05.998Z,100670.66
2022-11-25T01:25:08.065Z,100677.84
2022-11-25T01:30:12.899Z,100681.81
2022-11-25T01:35:14.741Z,100679.63
2022-11-25T01:40:17.028Z,100666.78
2022-11-25T01:45:37.345Z,100665.75
2022-11-25T01:50:40.035Z,100674.84
2022-11-25T01:55:48.583Z,100676.22
2022-11-25T02:00:53.407Z,100680.50
2022-11-25T02:06:17.233Z,100674.69
2022-11-25T02:11:21.603Z,100666.63
2022-11-25T02:16:23.399Z,100670.56
2022-11-25T02:21:33.863Z,100671.56
2022-11-25T02:26:35.795Z,100672.09
2022-11-25T02:31:37.614Z,100680.31
2022-11-25T02:36:39.460Z,100676.38
2022-11-25T02:41:46.445Z,100694.88
2022-11-25T02:46:48.464Z,100686.50
2022-11-25T02:51:50.098Z,100694.88
2022-11-25T02:56:52.531Z,100684.13
2022-11-25T03:01:54.406Z,100699.69
2022-11-25T03:06:56.063Z,100698.50
2022-11-25T03:12:17.701Z,100694.88
2022-11-25T03:17:19.385Z,100696.97
2022-11-25T03:22:21.243Z,100713.75
2022-11-25T03:27:22.906Z,100686.66
2022-11-25T03:32:24.788Z,100689.41
2022-11-25T03:37:26.644Z,100703.13
2022-11-25T03:42:28.449Z,100700.72
2022-11-25T03:47:31.345Z,100707.22
2022-11-25T03:52:33.233Z,100708.59
2022-11-25T03:57:35.453Z,100722.50
2022-11-25T04:02:37.320Z,100724.72
2022-11-25T04:07:39.070Z,100723.34
2022-11-25T04:12:48.513Z,100732.41
2022-11-25T04:17:57.217Z,100733.59
2022-11-25T04:22:59.341Z,100732.53
2022-11-25T04:28:03.172Z,100742.50
2022-11-25T04:33:08.326Z,100741.28
2022-11-25T04:38:10.226Z,100747.22
2022-11-25T04:43:13.541Z,100752.03
2022-11-25T04:48:21.713Z,100769.63
2022-11-25T04:53:23.669Z,100778.34
2022-11-25T04:58:44.127Z,100785.88
2022-11-25T05:03:54.481Z,100780.56
2022-11-25T05:08:59.936Z,100789.97
2022-11-25T05:14:02.086Z,100789.13
2022-11-25T05:19:04.099Z,100800.09
2022-11-25T05:24:06.027Z,100798.19
2022-11-25T05:29:10.169Z,100803.63
2022-11-25T05:34:12.632Z,100815.28
2022-11-25T05:39:14.542Z,100805.53
2022-11-25T05:44:36.710Z,100822.66
2022-11-25T05:49:38.654Z,100830.00
2022-11-25T05:54:40.493Z,100841.81
2022-11-25T05:59:43.642Z,100839.03
2022-11-25T06:04:54.247Z,100846.78
2022-11-25T06:10:01.508Z,100844.03
2022-11-25T06:15:06.741Z,100845.69
2022-11-25T06:20:11.014Z,100844.69
2022-11-25T06:25:12.954Z,100849.94
2022-11-25T06:30:17.039Z,100863.25
2022-11-25T06:35:26.021Z,100863.25
2022-11-25T06:40:31.220Z,100866.16
2022-11-25T06:45:33.539Z,100870.06
2022-11-25T06:50:35.135Z,100880.03
2022-11-25T06:55:36.891Z,100892.13
2022-11-25T07:00:38.561Z,100903.78
2022-11-25T07:05:40.133Z,100913.88
2022-11-25T07:10:41.725Z,100920.69
2022-11-25T07:15:43.521Z,100927.91
2022-11-25T07:20:45.144Z,100932.84
2022-11-25T07:25:46.814Z,100940.34
2022-11-25T07:31:22.713Z,100955.38
2022-11-25T07:36:11.777Z,100958.13
2022-11-25T07:41:15.820Z,100978.13
2022-11-25T07:46:21.998Z,100978.34
2022-11-25T07:51:29.790Z,101002.00
2022-11-25T07:56:34.106Z,101009.88
2022-11-25T08:01:35.860Z,101012.06
2022-11-25T08:06:40.500Z,101013.66
2022-11-25T08:11:42.702Z,101030.63
2022-11-25T08:16:45.420Z,101032.50
2022-11-25T08:21:50.047Z,101040.00
2022-11-25T08:26:52.218Z,101056.13
2022-11-25T08:31:54.087Z,101045.25
2022-11-25T08:36:55.733Z,101050.81
2022-11-25T08:41:57.506Z,101062.25
2022-11-25T10:45:43.014Z,101249.38
2022-11-25T10:51:05.100Z,101243.91
2022-11-25T10:56:12.510Z,101256.94
2022-11-25T11:01:22.303Z,101264.69
2022-11-25T11:06:35.315Z,101276.38
2022-11-25T11:11:49.076Z,101277.88
2022-11-25T11:16:56.364Z,101284.06
2022-11-25T11:22:16.171Z,101297.53
2022-11-25T11:27:25.500Z,101308.72
2022-11-25T11:32:29.227Z,101306.75
2022-11-25T11:37:36.899Z,101321.03
2022-11-25T11:42:59.174Z,101322.94
2022-11-25T11:48:13.285Z,101328.28
2022-11-25T11:53:30.396Z,101331.91
2022-11-25T11:58:57.545Z,101346.88
2022-11-25T12:04:20.953Z,101351.53
2022-11-25T12:09:25.145Z,101362.03
2022-11-25T12:14:50.923Z,101376.47
2022-11-25T12:19:58.863Z,101383.22
2022-11-25T12:25:09.950Z,101391.63
2022-11-25T12:30:16.469Z,101396.78
2022-11-25T12:35:57.383Z,101400.22
2022-11-25T12:40:59.097Z,101400.22
2022-11-25T12:46:24.740Z,101412.09
2022-11-25T12:51:54.424Z,101431.53
2022-11-25T12:57:22.702Z,101432.22
2022-11-25T13:02:42.636Z,101434.81
2022-11-25T13:08:13.766Z,101442.22
2022-11-25T13:13:36.703Z,101448.75
2022-11-25T13:18:43.494Z,101446.66
2022-11-25T13:23:49.013Z,101464.19
2022-11-25T13:28:52.225Z,101468.53
2022-11-25T13:34:09.305Z,101486.59
2022-11-25T13:39:16.739Z,101496.34
2022-11-25T13:44:25.551Z,101492.75
2022-11-25T13:49:32.811Z,101518.22
2022-11-25T13:54:55.359Z,101516.66
2022-11-25T14:00:05.845Z,101518.91
2022-11-25T14:05:27.239Z,101536.81
2022-11-25T14:10:46.028Z,101546.56
2022-11-25T14:16:09.538Z,101552.56
2022-11-25T14:21:21.508Z,101554.94
2022-11-25T14:26:48.791Z,101561.78
2022-11-25T14:31:59.739Z,101571.78
2022-11-25T14:37:12.159Z,101584.50
2022-11-25T14:42:17.871Z,101583.47
2022-11-25T14:47:28.198Z,101587.44
2022-11-25T14:52:35.908Z,101600.47
2022-11-25T14:57:43.926Z,101607.84
2022-11-25T15:02:57.127Z,101621.59
2022-11-25T15:08:08.566Z,101634.81
2022-11-25T15:13:24.842Z,101655.78
2022-11-25T15:18:26.645Z,101671.44
2022-11-25T15:23:34.915Z,101671.75
2022-11-25T15:28:39.079Z,101679.13
2022-11-25T15:33:42.593Z,101697.69
2022-11-25T15:38:46.417Z,101696.81
2022-11-25T15:43:52.455Z,101701.78
2022-11-25T15:48:58.704Z,101717.56
2022-11-25T15:54:05.584Z,101726.09
2022-11-25T15:59:40.729Z,101740.91
2022-11-25T16:04:43.553Z,101753.22
2022-11-25T16:09:51.378Z,101768.44
2022-11-25T16:14:53.054Z,101771.50
2022-11-25T16:19:54.788Z,101783.97
2022-11-25T16:25:02.182Z,101792.69
2022-11-25T16:30:04.428Z,101795.00
2022-11-25T16:35:15.706Z,101810.34
2022-11-25T16:40:19.027Z,101807.22
2022-11-25T16:45:26.423Z,101825.88
2022-11-25T16:50:28.282Z,101836.47
2022-11-25T16:55:30.921Z,101843.81
2022-11-25T17:00:32.596Z,101861.94
2022-11-25T17:05:36.902Z,101859.34
2022-11-25T17:10:39.915Z,101869.16
2022-11-25T17:15:41.683Z,101874.53
2022-11-25T17:20:44.406Z,101873.66
2022-11-25T17:25:49.416Z,101879.44
2022-11-25T17:30:51.232Z,101891.31
2022-11-25T17:35:52.978Z,101902.31
2022-11-25T17:40:54.853Z,101907.34
2022-11-25T17:45:56.631Z,101915.19
2022-11-25T17:50:59.508Z,101921.81
2022-11-25T17:56:03.037Z,101927.16
2022-11-25T18:01:04.878Z,101937.44
2022-11-25T18:06:07.002Z,101948.72
2022-11-25T18:11:15.122Z,101960.69
2022-11-25T18:16:18.921Z,101974.28
2022-11-25T18:21:23.894Z,101982.53
2022-11-25T18:26:25.563Z,101991.44
2022-11-25T18:31:28.061Z,102004.19
2022-11-25T18:36:29.797Z,101990.72
2022-11-25T18:41:31.502Z,102009.38
2022-11-25T18:46:41.373Z,102019.47
2022-11-25T18:51:43.926Z,102029.31
2022-11-25T18:56:53.870Z,102025.53
2022-11-25T19:01:55.751Z,102030.75
2022-11-25T19:06:57.529Z,102033.75
2022-11-25T19:11:59.257Z,102033.88
2022-11-25T19:17:03.405Z,102037.06
2022-11-25T19:22:15.819Z,102045.44
2022-11-25T19:27:24.043Z,102054.22
2022-11-25T19:32:28.711Z,102063.59
2022-11-25T19:37:30.869Z,102064.75
2022-11-25T19:42:35.759Z,102063.44
2022-11-25T19:47:37.386Z,102071.94
2022-11-25T19:52:40.094Z,102087.25
2022-11-25T19:57:41.803Z,102098.91
2022-11-25T20:02:44.831Z,102103.66
2022-11-25T20:07:47.282Z,102121.59
2022-11-25T20:12:49.886Z,102119.09
2022-11-25T20:17:54.826Z,102127.63
2022-11-25T20:23:01.896Z,102139.44
2022-11-25T20:28:07.766Z,102135.72
2022-11-25T20:33:09.499Z,102143.78
2022-11-25T20:38:20.443Z,102146.94
2022-11-25T20:43:38.853Z,102148.63
2022-11-25T20:48:40.926Z,102165.50
2022-11-25T20:53:46.538Z,102171.25
2022-11-25T20:58:48.745Z,102181.47
2022-11-25T21:03:50.514Z,102197.19
2022-11-25T21:08:58.565Z,102200.22
2022-11-25T21:14:00.313Z,102208.47
2022-11-25T21:19:02.292Z,102208.34
2022-11-25T21:24:16.158Z,102217.69
2022-11-25T21:29:21.420Z,102224.06
2022-11-25T21:34:26.474Z,102233.50
2022-11-25T21:39:31.491Z,102241.00
2022-11-25T21:44:43.081Z,102254.84
2022-11-25T21:49:45.086Z,102252.00
2022-11-25T21:54:47.494Z,102257.34
2022-11-25T21:59:49.566Z,102262.09
2022-11-25T22:04:52.143Z,102268.72
2022-11-25T22:09:53.972Z,102280.41
2022-11-25T22:14:58.617Z,102274.19
2022-11-25T22:20:00.617Z,102275.91
2022-11-25T22:25:03.080Z,102280.81
2022-11-25T22:30:05.869Z,102289.13
2022-11-25T22:35:19.027Z,102293.63
2022-11-25T22:40:20.701Z,102295.13
2022-11-25T22:45:34.453Z,102302.59
2022-11-25T22:50:36.224Z,102295.13
2022-11-25T22:55:37.847Z,102297.50
2022-11-25T23:00:42.847Z,102311.31
2022-11-25T23:05:44.939Z,102317.66
2022-11-25T23:10:47.534Z,102344.28
2022-11-25T23:15:54.940Z,102338.72
2022-11-25T23:20:56.702Z,102343.06
2022-11-25T23:25:58.757Z,102339.19
2022-11-25T23:31:02.009Z,102350.63
2022-11-25T23:36:09.107Z,102352.13
2022-11-25T23:41:16.954Z,102359.50
2022-11-25T23:46:22.637Z,102356.38
2022-11-25T23:51:25.255Z,102361.59
2022-11-25T23:56:28.041Z,102358.38
